createdAt,value
2019-06-10T00:01:25.967Z,4.30
2019-06-10T00:04:27.707Z,4.08
2019-06-10T00:07:31.459Z,3.70
2019-06-10T00:10:32.339Z,4.15
2019-06-10T00:13:33.689Z,4.40
2019-06-10T00:16:35.033Z,4.58
2019-06-10T00:19:36.389Z,4.42
2019-06-10T00:22:37.669Z,4.05
2019-06-10T00:25:41.484Z,4.37
2019-06-10T00:28:42.098Z,4.85
2019-06-10T00:31:43.355Z,4.55
2019-06-10T00:34:44.684Z,4.80
2019-06-10T00:37:45.926Z,4.50
2019-06-10T00:40:47.193Z,4.37
2019-06-10T00:43:48.446Z,5.28
2019-06-10T00:46:51.619Z,5.10
2019-06-10T00:49:52.786Z,5.00
2019-06-10T00:52:54.084Z,5.08
2019-06-10T00:55:55.317Z,5.42
2019-06-10T00:58:56.694Z,5.20
2019-06-10T01:01:57.933Z,4.67
2019-06-10T01:05:00.807Z,4.87
2019-06-10T01:08:02.980Z,6.05
2019-06-10T01:11:10.457Z,5.37
2019-06-10T01:14:07.459Z,5.95
2019-06-10T01:17:11.814Z,5.85
2019-06-10T01:20:14.427Z,5.78
2019-06-10T01:23:15.699Z,5.53
2019-06-10T01:26:18.333Z,5.90
2019-06-10T01:29:21.065Z,5.60
2019-06-10T01:32:22.784Z,5.67
2019-06-10T01:35:24.227Z,5.00
2019-06-10T01:38:25.457Z,4.92
2019-06-10T01:41:30.565Z,5.42
2019-06-10T01:44:33.972Z,5.50
2019-06-10T01:47:35.008Z,5.55
2019-06-10T01:50:36.257Z,5.70
2019-06-10T01:53:37.540Z,5.65
2019-06-10T01:56:40.870Z,6.12
2019-06-10T01:59:42.040Z,6.45
2019-06-10T02:02:44.884Z,6.42
2019-06-10T02:05:46.457Z,5.90
2019-06-10T02:08:47.818Z,6.17
2019-06-10T02:11:51.266Z,6.17
2019-06-10T02:14:55.321Z,6.60
2019-06-10T02:17:56.630Z,6.17
2019-06-10T02:21:00.716Z,6.42
2019-06-10T02:24:01.154Z,6.70
2019-06-10T02:27:02.491Z,7.15
2019-06-10T02:30:14.931Z,7.12
2019-06-10T02:33:12.002Z,7.12
2019-06-10T02:36:15.934Z,7.47
2019-06-10T02:39:20.125Z,7.10
2019-06-10T02:42:30.100Z,7.50
2019-06-10T02:45:32.689Z,7.12
2019-06-10T02:48:30.538Z,5.85
2019-06-10T02:51:35.439Z,5.67
2019-06-10T02:54:35.882Z,6.75
2019-06-10T02:57:40.424Z,6.30
2019-06-10T03:00:48.012Z,6.55
2019-06-10T03:03:48.956Z,6.42
2019-06-10T03:06:46.738Z,6.45
2019-06-10T03:09:48.066Z,7.67
2019-06-10T03:12:49.417Z,5.90
2019-06-10T03:15:52.653Z,6.15
2019-06-10T03:18:54.037Z,6.08
2019-06-10T03:21:55.270Z,5.65
2019-06-10T03:24:56.930Z,6.20
2019-06-10T03:27:58.169Z,5.55
2019-06-10T03:30:59.562Z,5.95
2019-06-10T03:34:04.452Z,5.65
2019-06-10T03:37:04.081Z,5.47
2019-06-10T03:40:05.622Z,5.35
2019-06-10T03:43:08.791Z,5.97
2019-06-10T03:46:29.890Z,4.90
2019-06-10T03:49:32.175Z,4.90
2019-06-10T03:52:33.510Z,4.53
2019-06-10T03:55:34.884Z,4.95
2019-06-10T03:58:36.221Z,4.47
2019-06-10T04:01:37.493Z,4.37
2019-06-10T04:04:38.812Z,4.67
2019-06-10T04:07:42.694Z,4.83
2019-06-10T04:10:43.569Z,4.53
2019-06-10T04:13:48.020Z,5.78
2019-06-10T04:16:49.214Z,4.87
2019-06-10T04:20:07.584Z,3.80
2019-06-10T04:22:55.440Z,4.20
2019-06-10T04:25:56.754Z,4.20
2019-06-10T04:28:57.998Z,4.58
2019-06-10T04:32:03.072Z,4.20
2019-06-10T04:35:04.623Z,7.97
2019-06-10T04:38:05.933Z,4.15
2019-06-10T04:41:07.169Z,3.95
2019-06-10T04:44:08.446Z,4.30
2019-06-10T04:47:11.935Z,4.58
2019-06-10T04:50:24.003Z,4.30
2019-06-10T04:53:16.061Z,4.67
2019-06-10T04:56:17.329Z,4.58
2019-06-10T04:59:18.878Z,5.30
2019-06-10T05:02:23.788Z,5.05
2019-06-10T05:05:25.282Z,4.35
2019-06-10T05:08:27.902Z,4.30
2019-06-10T05:11:30.844Z,4.78
2019-06-10T05:14:33.558Z,5.72
2019-06-10T05:17:35.017Z,4.60
2019-06-10T05:20:51.207Z,6.10
2019-06-10T05:23:39.502Z,5.28
2019-06-10T05:26:42.824Z,5.20
2019-06-10T05:29:44.539Z,5.12
2019-06-10T05:32:46.073Z,5.17
2019-06-10T05:35:47.730Z,5.05
2019-06-10T05:38:52.569Z,5.08
2019-06-10T05:41:53.960Z,5.50
2019-06-10T05:44:55.325Z,4.85
2019-06-10T05:47:56.684Z,5.62
2019-06-10T05:51:02.929Z,5.03
2019-06-10T05:54:02.166Z,7.47
2019-06-10T05:57:03.629Z,5.67
2019-06-10T06:00:13.905Z,5.25
2019-06-10T06:03:12.062Z,5.20
2019-06-10T06:06:13.415Z,5.30
2019-06-10T06:09:14.903Z,5.47
2019-06-10T06:12:16.238Z,5.30
2019-06-10T06:15:18.145Z,6.00
2019-06-10T06:18:19.384Z,5.58
2019-06-10T06:21:29.553Z,5.53
2019-06-10T06:24:23.690Z,5.95
2019-06-10T06:27:24.957Z,5.83
2019-06-10T06:30:26.513Z,6.40
2019-06-10T06:33:29.319Z,6.08
2019-06-10T06:36:33.318Z,6.22
2019-06-10T06:39:35.504Z,6.33
2019-06-10T06:42:38.348Z,6.75
2019-06-10T06:45:42.607Z,6.87
2019-06-10T06:48:44.567Z,7.50
2019-06-10T06:51:54.909Z,7.55
2019-06-10T06:54:49.230Z,7.33
2019-06-10T06:57:52.842Z,8.15
2019-06-10T07:01:04.444Z,7.40
2019-06-10T07:03:57.498Z,7.30
2019-06-10T07:07:02.546Z,7.90
2019-06-10T07:10:06.933Z,7.62
2019-06-10T07:13:12.767Z,8.18
2019-06-10T07:16:13.213Z,8.95
2019-06-10T07:19:16.762Z,9.25
2019-06-10T07:22:18.097Z,8.95
2019-06-10T07:25:19.385Z,9.68
2019-06-10T07:28:22.902Z,9.45
2019-06-10T07:31:27.685Z,9.88
2019-06-10T07:34:26.813Z,10.72
2019-06-10T07:37:28.404Z,10.58
2019-06-10T07:40:30.046Z,10.63
2019-06-10T07:43:32.879Z,10.78
2019-06-10T07:46:36.061Z,12.40
2019-06-10T07:49:37.475Z,10.78
2019-06-10T07:52:39.333Z,11.33
2019-06-10T07:55:42.154Z,11.65
2019-06-10T07:58:47.500Z,11.22
2019-06-10T08:01:51.346Z,12.53
2019-06-10T08:04:53.893Z,11.78
2019-06-10T08:07:54.733Z,12.65
2019-06-10T08:10:56.286Z,12.20
2019-06-10T08:13:57.503Z,12.68
2019-06-10T08:16:58.894Z,14.05
2019-06-10T08:20:02.415Z,13.18
2019-06-10T08:23:03.682Z,12.73
2019-06-10T08:26:05.160Z,14.05
2019-06-10T08:29:06.626Z,17.98
2019-06-10T08:32:09.787Z,13.50
2019-06-10T08:35:12.842Z,13.72
2019-06-10T08:38:15.672Z,13.10
2019-06-10T08:41:17.121Z,13.58
2019-06-10T08:44:19.146Z,12.63
2019-06-10T08:47:22.818Z,12.30
2019-06-10T08:50:24.798Z,12.70
2019-06-10T08:53:28.497Z,13.40
2019-06-10T08:56:32.806Z,12.43
2019-06-10T08:59:35.966Z,12.90
2019-06-10T09:02:45.221Z,13.65
2019-06-10T09:05:49.056Z,14.83
2019-06-10T09:08:49.911Z,12.80
2019-06-10T09:11:54.470Z,12.68
2019-06-10T09:14:54.409Z,11.75
2019-06-10T09:17:56.467Z,12.07
2019-06-10T09:20:58.085Z,12.47
2019-06-10T09:24:01.247Z,11.80
2019-06-10T09:27:03.041Z,11.75
2019-06-10T09:30:09.417Z,11.08
2019-06-10T09:33:12.855Z,11.83
2019-06-10T09:36:13.958Z,11.60
2019-06-10T09:39:15.390Z,11.68
2019-06-10T09:42:16.910Z,11.33
2019-06-10T09:45:18.479Z,11.75
2019-06-10T09:48:22.931Z,10.50
2019-06-10T09:51:26.909Z,10.13
2019-06-10T09:54:28.389Z,10.93
2019-06-10T09:57:32.022Z,11.33
2019-06-10T10:00:56.976Z,11.18
2019-06-10T10:03:59.865Z,11.22
2019-06-10T10:06:57.626Z,11.05
2019-06-10T10:09:59.187Z,10.58
2019-06-10T10:13:02.714Z,10.65
2019-06-10T10:16:07.317Z,9.18
2019-06-10T10:19:08.695Z,10.03
2019-06-10T10:22:11.689Z,10.00
2019-06-10T10:25:14.404Z,10.00
2019-06-10T10:28:15.873Z,10.82
2019-06-10T10:31:17.395Z,9.93
2019-06-10T10:34:22.436Z,9.90
2019-06-10T10:37:24.912Z,9.10
2019-06-10T10:40:26.595Z,9.63
2019-06-10T10:43:33.263Z,9.13
2019-06-10T10:46:33.216Z,9.35
2019-06-10T10:49:34.577Z,9.18
2019-06-10T10:52:37.761Z,8.98
2019-06-10T10:55:38.933Z,9.60
2019-06-10T10:58:40.177Z,9.18
2019-06-10T11:01:42.758Z,8.20
2019-06-10T11:04:46.242Z,9.00
2019-06-10T11:07:49.868Z,9.48
2019-06-10T11:10:56.975Z,12.47
2019-06-10T11:13:58.511Z,9.30
2019-06-10T11:16:59.901Z,8.98
2019-06-10T11:20:03.697Z,9.40
2019-06-10T11:23:04.648Z,8.63
2019-06-10T11:26:06.028Z,10.60
2019-06-10T11:29:07.766Z,8.53
2019-06-10T11:32:09.048Z,8.25
2019-06-10T11:35:12.148Z,8.40
2019-06-10T11:38:14.122Z,8.40
2019-06-10T11:41:16.290Z,7.90
2019-06-10T11:44:19.738Z,7.60
2019-06-10T11:47:22.817Z,8.20
2019-06-10T11:50:24.425Z,8.48
2019-06-10T11:53:28.725Z,7.50
2019-06-10T11:56:28.985Z,7.95
2019-06-10T11:59:32.602Z,7.45
2019-06-10T12:02:33.414Z,6.58
2019-06-10T12:05:35.286Z,7.12
2019-06-10T12:08:37.058Z,7.33
2019-06-10T12:11:38.337Z,6.78
2019-06-10T12:14:43.143Z,6.62
2019-06-10T12:17:50.800Z,6.35
2019-06-10T12:20:47.667Z,5.97
2019-06-10T12:23:49.720Z,6.25
2019-06-10T12:26:55.239Z,6.15
2019-06-10T12:29:56.682Z,6.10
2019-06-10T12:32:59.457Z,6.37
2019-06-10T12:36:07.082Z,6.03
2019-06-10T12:39:10.853Z,5.75
2019-06-10T12:42:15.847Z,5.92
2019-06-10T12:45:20.310Z,5.50
2019-06-10T12:48:23.450Z,5.70
2019-06-10T12:51:24.752Z,5.90
2019-06-10T12:54:26.502Z,6.08
2019-06-10T12:57:32.422Z,5.42
2019-06-10T13:00:39.423Z,5.80
2019-06-10T13:03:43.263Z,6.10
2019-06-10T13:06:52.565Z,5.80
2019-06-10T13:09:57.636Z,5.33
2019-06-10T13:13:00.229Z,5.75
2019-06-10T13:16:06.606Z,5.00
2019-06-10T13:19:07.935Z,5.33
2019-06-10T13:22:09.319Z,5.58
2019-06-10T13:25:13.235Z,5.37
2019-06-10T13:28:13.694Z,5.62
2019-06-10T13:31:15.612Z,4.90
2019-06-10T13:34:17.101Z,5.78
2019-06-10T13:37:18.389Z,7.22
2019-06-10T13:40:22.578Z,6.80
2019-06-10T13:43:24.033Z,5.20
2019-06-10T13:46:25.672Z,5.83
2019-06-10T13:49:28.680Z,5.60
2019-06-10T13:52:32.237Z,6.00
2019-06-10T13:55:35.542Z,5.62
2019-06-10T13:58:36.872Z,7.55
2019-06-10T14:01:38.453Z,5.87
2019-06-10T14:04:40.242Z,5.90
2019-06-10T14:07:43.496Z,6.90
2019-06-10T14:10:45.525Z,5.65
2019-06-10T14:13:46.891Z,5.85
2019-06-10T14:16:54.002Z,6.10
2019-06-10T14:19:54.285Z,6.10
2019-06-10T14:22:55.748Z,6.30
2019-06-10T14:25:57.797Z,6.08
2019-06-10T14:28:59.380Z,6.28
2019-06-10T14:32:02.666Z,5.97
2019-06-10T14:35:07.021Z,5.90
2019-06-10T14:38:10.056Z,6.05
2019-06-10T14:41:12.753Z,6.67
2019-06-10T14:44:17.735Z,6.33
2019-06-10T14:47:17.489Z,7.17
2019-06-10T14:50:19.077Z,6.90
2019-06-10T14:53:22.913Z,6.00
2019-06-10T14:56:23.803Z,6.12
2019-06-10T14:59:25.329Z,7.55
2019-06-10T15:02:26.724Z,5.62
2019-06-10T15:05:28.634Z,5.50
2019-06-10T15:08:32.130Z,5.50
2019-06-10T15:11:36.310Z,5.30
2019-06-10T15:14:42.746Z,5.22
2019-06-10T15:17:45.529Z,4.95
2019-06-10T15:20:47.451Z,4.60
2019-06-10T15:23:48.685Z,5.28
2019-06-10T15:27:05.949Z,5.10
2019-06-10T15:29:54.324Z,5.20
2019-06-10T15:32:57.845Z,4.80
2019-06-10T15:36:02.354Z,5.05
2019-06-10T15:39:06.358Z,6.90
2019-06-10T15:42:11.497Z,5.45
2019-06-10T15:45:18.026Z,4.85
2019-06-10T15:48:25.106Z,4.85
2019-06-10T15:51:26.179Z,4.70
2019-06-10T15:54:26.631Z,5.80
2019-06-10T15:57:39.538Z,5.15
2019-06-10T16:00:34.151Z,5.25
2019-06-10T16:03:34.682Z,4.87
2019-06-10T16:06:35.942Z,5.20
2019-06-10T16:09:37.236Z,5.40
2019-06-10T16:12:38.644Z,5.05
2019-06-10T16:15:39.932Z,4.65
2019-06-10T16:18:42.327Z,4.70
2019-06-10T16:21:44.440Z,6.47
2019-06-10T16:24:45.817Z,5.60
2019-06-10T16:27:51.024Z,5.15
2019-06-10T16:30:53.315Z,5.28
2019-06-10T16:33:54.578Z,5.00
2019-06-10T16:36:55.998Z,5.08
2019-06-10T16:39:57.482Z,5.08
2019-06-10T16:42:59.802Z,4.90
2019-06-10T16:46:03.306Z,6.10
2019-06-10T16:49:05.546Z,5.90
2019-06-10T16:52:06.983Z,4.92
2019-06-10T16:55:08.837Z,5.15
2019-06-10T16:58:10.021Z,5.05
2019-06-10T17:01:12.439Z,5.33
2019-06-10T17:04:14.161Z,5.90
2019-06-10T17:07:15.418Z,5.40
2019-06-10T17:10:17.594Z,5.15
2019-06-10T17:13:23.558Z,4.90
2019-06-10T17:16:26.107Z,5.70
2019-06-10T17:19:29.962Z,6.20
2019-06-10T17:22:33.411Z,6.03
2019-06-10T17:25:34.327Z,6.50
2019-06-10T17:28:36.816Z,7.30
2019-06-10T17:31:39.381Z,7.87
2019-06-10T17:34:42.344Z,7.47
2019-06-10T17:37:43.631Z,8.03
2019-06-10T17:40:45.358Z,10.53
2019-06-10T17:43:46.846Z,13.22
2019-06-10T17:46:48.283Z,8.83
2019-06-10T17:49:50.569Z,8.53
2019-06-10T17:52:53.410Z,9.63
2019-06-10T17:55:54.952Z,9.25
2019-06-10T17:58:58.112Z,8.33
2019-06-10T18:01:59.621Z,8.85
2019-06-10T18:05:03.214Z,8.85
2019-06-10T18:08:04.787Z,9.00
2019-06-10T18:11:06.325Z,9.40
2019-06-10T18:14:07.795Z,9.73
2019-06-10T18:17:12.808Z,9.98
2019-06-10T18:20:15.064Z,9.95
2019-06-10T18:23:16.722Z,10.50
2019-06-10T18:26:18.261Z,10.48
2019-06-10T18:29:19.515Z,10.58
2019-06-10T18:32:22.844Z,10.72
2019-06-10T18:35:25.822Z,11.65
2019-06-10T18:38:27.376Z,10.30
2019-06-10T18:41:28.621Z,11.60
2019-06-10T18:44:32.665Z,11.85
2019-06-10T18:47:36.100Z,10.45
2019-06-10T18:50:39.384Z,11.18
2019-06-10T18:53:43.609Z,13.18
2019-06-10T18:56:45.673Z,10.82
2019-06-10T18:59:47.382Z,10.53
2019-06-10T19:02:49.243Z,10.78
2019-06-10T19:05:52.787Z,10.60
2019-06-10T19:08:53.751Z,11.40
2019-06-10T19:12:02.757Z,11.83
2019-06-10T19:15:05.193Z,12.15
2019-06-10T19:18:06.891Z,11.60
2019-06-10T19:21:12.560Z,11.45
2019-06-10T19:24:17.522Z,12.10
2019-06-10T19:27:19.001Z,11.73
2019-06-10T19:30:23.148Z,11.45
2019-06-10T19:33:23.975Z,12.13
2019-06-10T19:36:28.132Z,12.65
2019-06-10T19:39:29.849Z,11.95
2019-06-10T19:42:34.510Z,12.20
2019-06-10T19:45:38.459Z,11.83
2019-06-10T19:48:55.473Z,12.18
2019-06-10T19:51:49.801Z,11.95
2019-06-10T19:54:55.926Z,11.97
2019-06-10T19:57:57.963Z,11.60
2019-06-10T20:01:00.044Z,11.88
2019-06-10T20:04:07.619Z,12.18
2019-06-10T20:07:12.836Z,11.48
2019-06-10T20:10:15.009Z,11.83
2019-06-10T20:13:18.171Z,12.18
2019-06-10T20:16:24.670Z,11.55
2019-06-10T20:19:26.463Z,12.30
2019-06-10T20:22:32.056Z,11.85
2019-06-10T20:25:33.405Z,11.83
2019-06-10T20:28:34.962Z,12.13
2019-06-10T20:31:36.410Z,11.97
2019-06-10T20:34:39.302Z,11.20
2019-06-10T20:37:44.283Z,12.63
2019-06-10T20:40:48.761Z,11.78
2019-06-10T20:43:55.058Z,12.05
2019-06-10T20:46:54.032Z,12.90
2019-06-10T20:49:56.285Z,12.82
2019-06-10T20:53:11.844Z,12.47
2019-06-10T20:56:03.749Z,12.98
2019-06-10T20:59:06.174Z,12.50
2019-06-10T21:02:07.971Z,12.90
2019-06-10T21:05:10.441Z,12.65
2019-06-10T21:08:14.179Z,12.80
2019-06-10T21:11:15.488Z,13.03
2019-06-10T21:14:17.402Z,12.95
2019-06-10T21:17:22.822Z,12.18
2019-06-10T21:20:25.071Z,13.53
2019-06-10T21:23:28.862Z,12.60
2019-06-10T21:26:32.360Z,13.20
2019-06-10T21:29:35.107Z,13.03
2019-06-10T21:32:36.621Z,13.03
2019-06-10T21:35:38.145Z,13.13
2019-06-10T21:38:39.568Z,13.20
2019-06-10T21:41:43.450Z,13.50
2019-06-10T21:44:43.979Z,13.20
2019-06-10T21:47:45.900Z,13.22
2019-06-10T21:50:49.799Z,13.35
2019-06-10T21:53:53.737Z,13.53
2019-06-10T21:56:55.616Z,14.47
2019-06-10T21:59:57.229Z,14.28
2019-06-10T22:02:58.907Z,13.95
2019-06-10T22:06:00.303Z,14.05
2019-06-10T22:09:04.029Z,13.88
2019-06-10T22:12:04.837Z,14.25
2019-06-10T22:15:12.291Z,13.53
2019-06-10T22:18:15.236Z,14.07
2019-06-10T22:21:16.749Z,14.68
2019-06-10T22:24:18.053Z,14.55
2019-06-10T22:27:19.297Z,15.83
2019-06-10T22:30:22.766Z,15.10
2019-06-10T22:33:24.166Z,15.80
2019-06-10T22:36:25.392Z,14.98
2019-06-10T22:39:28.821Z,15.35
2019-06-10T22:42:30.116Z,15.63
2019-06-10T22:45:32.320Z,15.20
2019-06-10T22:48:33.843Z,16.62
2019-06-10T22:51:35.203Z,17.45
2019-06-10T22:54:36.549Z,18.00
2019-06-10T22:57:37.780Z,16.25
2019-06-10T23:00:39.075Z,16.65
2019-06-10T23:03:40.872Z,16.62
2019-06-10T23:06:42.134Z,17.35
2019-06-10T23:09:48.622Z,16.60
2019-06-10T23:12:51.299Z,17.70
2019-06-10T23:15:53.957Z,18.42
2019-06-10T23:18:58.423Z,19.48
2019-06-10T23:22:02.950Z,18.23
2019-06-10T23:25:05.318Z,18.80
2019-06-10T23:28:06.570Z,17.25
2019-06-10T23:31:08.282Z,18.70
2019-06-10T23:34:15.999Z,18.52
2019-06-10T23:37:14.770Z,17.82
2019-06-10T23:40:16.001Z,17.15
2019-06-10T23:43:22.334Z,20.05
2019-06-10T23:46:22.920Z,19.17
2019-06-10T23:49:24.181Z,19.50
2019-06-10T23:52:25.434Z,17.45
2019-06-10T23:55:27.078Z,20.12
2019-06-10T23:58:28.338Z,17.67
